West End, Texas
Current Conditions -  °F | °C
As of 8:15 AM on Sunday 25 Jan 2015 (Local Time) from KARM Reporting Station
Clear Clear  
Wind Chill: 40°   Ceiling: Unl
Heat Index: 45°   Visibility: 10mi
Dew Point: 38°   Wind: 8mph
Humidity: 78%   Direction: 220°SW
Pressure: 30.06"   Gusts: NA
Location:  29.1916°N, 96.2212°W
Report Text: KARM 251415Z AUTO 22007KT 10SM CLR 07/04 A3006 RMK AO2 T00710035
Loading
Personal Weather Stations






























Interactive Weather Map New forecast layout! Learn more

10-Day Weather Forecast

Advertisements
Track Severe Weather on mobile